To NAV CANADA Home Page Login to a new session Search on AWWS site Feedback and Comments Disclaimer Vers la page française équivalente Tips FAQ What's new on the site To the Forecasts and Observations / NOTAM section To "File a Flight Plan" website Publications and other links Update of the User's profile FIC Telephone Numbers My Weather Data Folder Route Weather Data Regional Weather Data Local Weather Data To the Forecasts and Observations / NOTAM section
Request Generated 01/17/2017 at 04:57:50 UTC . Weather information available at that time is displayed.

METAR/TAF

ABBOTSFORD/BC    

SPECI CYXX 170409Z 03008KT 8SM -RA OVC052 03/02 A2995 RMK SC8 SLP146=
METAR CYXX 170400Z 04003KT 6SM -RA BR OVC052 02/01 A2995 RMK SC8
SLP147=
METAR CYXX 170300Z 08005KT 8SM -SNRA OVC065 02/01 A3000 RMK SC8
SLP161=
SPECI CYXX 170221Z 00000KT 8SM -SNRA SCT055 OVC070 04/M00 A2999 RMK
SC3AC5 SLP159=
SPECI CYXX 170203Z 29004KT 10SM -RA OVC070 04/M01 A2998 RMK AC8
SLP157=
METAR CYXX 170200Z 28006KT 10SM OVC070 04/M00 A2998 RMK AC8 PRESRR
SLP157=

TAF CYXX 162338Z 1700/1724 02005KT P6SM OVC080 TEMPO 1700/1703 P6SM
-SHRA OVC050
FM170300 04006KT P6SM -RA OVC050
FM170600 03008KT 6SM -RA SCT020 OVC040 TEMPO 1706/1720 4SM RA BR
OVC020
FM172000 06010KT P6SM -RA FEW015 OVC040
RMK NXT FCST BY 170600Z=
Your time UTC time
Weather data provided by Environment Canada and NAV CANADA